x

West Oregon - 275nm West Of Coos Bay, Or (46002) Wave Buoy

1:50pm - Mon 26th Jan 2015 All times are UTC.

  • Sig Wave height 8.5ft
  • Peak Period 13s
  • Average Period 9s
  • Wind
    13mph, 16mph gusts
  • Sea Temp 55°f
  • Air Temp 55°f
  • Sea Pressure 1009.8mb

More Historic Weather Station data

Upgrade to MSW Pro to gain access to the past 30 days of data for over 8000 Wavebouys and Weather Stations around the globe.

Join Pro

Comparision Forecast

View Surf forecast
   
Mon 01/26 1:50pm 8.5ft 13s 9s 13 16 mph 1009.8mb 55f 55f
12:50pm 9ft 14s 9s 11 13 mph 1010.2mb 55f 54f
11:50am 9ft 14s 9s 13 16 mph 1010.9mb 55f 55f
10:50am 9.5ft 13s 9s 11 13 mph 1010.5mb 55f 54f
9:50am 8.5ft 14s 8s 9 13 mph 1010.7mb 55f 54f
8:50am 9ft 14s 9s 7 9 mph 1010.8mb 55f 54f
7:50am 9ft 14s 9s 9 11 mph 1011.4mb 55f 54f
6:50am 9.5ft 15s 9s 13 16 mph 1011.8mb 56f 54f
5:50am 9.5ft 14s 8s 18 22 mph 1012.6mb 56f 54f
4:50am 10ft 15s 9s 20 25 mph 1011.8mb 56f 53f
3:50am 9.5ft 15s 9s 18 20 mph 1011.7mb 56f 53f
2:50am 10ft 15s 9s 13 16 mph 1011.9mb 56f 53f
1:50am 10ft 13s 9s 11 13 mph 1012.2mb 56f 53f
12:50am 9ft 14s 9s 20 25 mph 1012.1mb 56f 52f
Sun 01/25 11:50pm 9.5ft 15s 9s 16 20 mph 1012.8mb 56f 53f
10:50pm 10ft 11s 9s 13 16 mph 1013.8mb 56f 53f
9:50pm 8.5ft 13s 9s 13 18 mph 1014.3mb 56f 54f
8:50pm 9ft 15s 9s 13 16 mph 1015.2mb 55f 53f
7:50pm 11ft 13s 9s 13 16 mph 1016.9mb 55f 53f
6:50pm 9ft 11s 8s 16 18 mph 1017.2mb 55f 53f
5:50pm 9ft 14s 8s 16 18 mph 1016.9mb 55f 53f
4:50pm 10ft 14s 9s 16 18 mph 1017.1mb 55f 53f
3:50pm 9ft 13s 9s 16 20 mph 1016.9mb 55f 53f
2:50pm 10ft 13s 9s 13 18 mph 1017.4mb 55f 53f
1:50pm 10ft 13s 9s 13 16 mph 1017.8mb 55f 53f
12:50pm 10ft 11s 8s 13 18 mph 1018.1mb 55f 53f
11:50am 9.5ft 14s 8s 18 20 mph 1019.2mb 55f 53f
10:50am 10.5ft 15s 9s 18 20 mph 1019.1mb 55f 53f
9:50am 9.5ft 14s 9s 18 22 mph 1019.6mb 55f 53f
8:50am 10ft 14s 9s 16 20 mph 1020.1mb 55f 53f
7:50am 9.5ft 15s 9s 13 18 mph 1020.8mb 55f 53f
6:50am 10ft 11s 9s 13 16 mph 1021.1mb 55f 53f
5:50am 10ft 14s 9s 11 16 mph 1021.2mb 55f 53f
4:50am 10ft 13s 8s 13 16 mph 1021.7mb 55f 53f
3:50am 10ft 15s 8s 13 18 mph 1021.8mb 55f 53f
2:50am 11ft 14s 9s 13 16 mph 1021.7mb 55f 54f
1:50am 11ft 14s 9s 16 20 mph 1021.7mb 55f 54f
12:50am 9.5ft 14s 8s 16 18 mph 1021.6mb 55f 55f
Sat 01/24 11:50pm 11.5ft 15s 9s 16 18 mph 1021.7mb 55f 55f
10:50pm 11ft 14s 9s 13 18 mph 1021.7mb 55f 55f
9:50pm 11ft 14s 9s 18 20 mph 1022.2mb 55f 55f
8:50pm 10ft 15s 8s 20 25 mph 1022.5mb 55f 55f
7:50pm 9.5ft 15s 8s 20 27 mph 1023.6mb 55f 55f
6:50pm 11ft 16s 9s 18 22 mph 1024.3mb 55f 55f
5:50pm 10.5ft 15s 9s 18 25 mph 1024.5mb 55f 55f
4:50pm 11ft 15s 9s 16 20 mph 1024.1mb 55f 55f
3:50pm 10.5ft 15s 9s 16 18 mph 1024.5mb 55f 56f
2:50pm 10ft 15s 9s 16 20 mph 1024.6mb 55f 56f
1:50pm 10.5ft 16s 9s 16 20 mph 1024.5mb 55f 55f
12:50pm 12ft 16s 10s 18 22 mph 1025.2mb 55f 56f
11:50am 11ft 16s 9s 16 18 mph 1025.7mb 55f 56f
10:50am 12ft 15s 10s 13 18 mph 1026.2mb 55f 56f
9:50am 12ft 14s 10s 16 18 mph 1026.3mb 55f 56f
8:50am 12ft 15s 10s 11 16 mph 1027.2mb 55f 56f
7:50am 12ft 15s 10s 11 16 mph 1027.3mb 55f 56f
6:50am 11ft 15s 10s 16 18 mph 1027mb 55f 56f
5:50am 11ft 14s 10s 16 20 mph 1026.4mb 55f 56f
4:50am 12ft 16s 10s 16 18 mph 1027.4mb 55f 56f
3:50am 13ft 16s 10s 13 16 mph 1027.5mb 55f 56f
2:50am 13ft 16s 10s 11 13 mph 1027.4mb 55f 56f
1:50am 11ft 17s 9s 16 20 mph 1027.2mb 55f 56f
12:50am 13ft 17s 10s 13 16 mph 1027.1mb 55f 56f
Fri 01/23 11:50pm 12ft 17s 9s 16 20 mph 1026.4mb 55f 56f
10:50pm 12ft 17s 9s 18 20 mph 1026.2mb 55f 56f
9:50pm 13ft 17s 9s 18 22 mph 1025.8mb 55f 55f
8:50pm 12ft 17s 9s 18 22 mph 1026.1mb 55f 55f
7:50pm 12.5ft 17s 9s 20 25 mph 1026.3mb 56f 56f
6:50pm 11.5ft 17s 9s 20 25 mph 1026.7mb 56f 56f
5:50pm 11ft 17s 8s 13 16 mph 1026.9mb 56f 56f
4:50pm 11ft 17s 8s 16 18 mph 1026.4mb 56f 56f
3:50pm 12ft 17s 9s 20 22 mph 1025.3mb 55f 56f
2:50pm 13ft 17s 9s 22 27 mph 1025.5mb 55f 56f
1:50pm 13ft 17s 10s 20 25 mph 1025.1mb 55f 56f
12:50pm 12ft 17s 9s 20 25 mph 1025.1mb 55f 56f
11:50am 13ft 17s 10s 20 22 mph 1024.9mb 55f 56f
10:50am 12.5ft 17s 9s 18 20 mph 1025.3mb 55f 56f
9:50am 12ft 19s 9s 20 25 mph 1024.9mb 55f 56f
8:50am 13.5ft 19s 10s 20 27 mph 1024.6mb 55f 56f
7:50am 10.5ft 19s 8s 20 25 mph 1024.8mb 55f 56f
6:50am 11ft 19s 8s 20 27 mph 1024.8mb 55f 56f
5:50am 10ft 19s 8s 18 20 mph 1024.6mb 55f 56f
4:50am 9.5ft 19s 8s 20 25 mph 1023.3mb 55f 56f
3:50am 10ft 12s 8s 20 22 mph 1023.6mb 55f 56f
2:50am 9.5ft 21s 8s 18 22 mph 1023.7mb 55f 56f
1:50am 9ft 11s 7s 18 22 mph 1023.3mb 55f 56f
12:50am 9.5ft 11s 8s 18 20 mph 1022.5mb 55f 56f
Thu 01/22 11:50pm 11ft 12s 8s 18 20 mph 1022.6mb 55f 56f
10:50pm 10ft 12s 8s 18 20 mph 1022.3mb 55f 56f
9:50pm 8.5ft 11s 7s 18 22 mph 1022.2mb 55f 56f
8:50pm 9ft 11s 7s 22 27 mph 1022.3mb 55f 56f
7:50pm 10ft 13s 8s 22 27 mph 1022.1mb 55f 56f
6:50pm 10ft 11s 8s 20 25 mph 1022.3mb 55f 56f
5:50pm 10ft 11s 8s 18 22 mph 1022mb 55f 56f
4:50pm 9ft 12s 8s 18 22 mph 1021.5mb 55f 55f
3:50pm 10ft 11s 9s 18 20 mph 1021.1mb 55f 55f